createdAt,value
2019-05-18T00:01:33.028Z,27.62
2019-05-18T00:07:34.770Z,23.87
2019-05-18T00:13:36.366Z,24.77
2019-05-18T00:19:37.861Z,26.33
2019-05-18T00:25:40.355Z,23.57
2019-05-18T00:31:42.638Z,26.87
2019-05-18T00:37:44.183Z,23.75
2019-05-18T00:43:45.620Z,24.32
2019-05-18T00:49:47.189Z,29.85
2019-05-18T00:55:49.884Z,28.70
2019-05-18T01:01:51.347Z,28.80
2019-05-18T01:07:52.850Z,27.22
2019-05-18T01:13:54.309Z,32.70
2019-05-18T01:19:55.928Z,25.02
2019-05-18T01:25:57.429Z,24.87
2019-05-18T01:31:59.075Z,27.73
2019-05-18T01:38:00.660Z,34.98
2019-05-18T01:44:02.324Z,27.10
2019-05-18T01:50:04.320Z,29.00
2019-05-18T01:56:06.001Z,27.73
2019-05-18T02:02:07.702Z,27.13
2019-05-18T02:08:09.163Z,24.57
2019-05-18T02:14:10.795Z,27.52
2019-05-18T02:20:12.712Z,24.52
2019-05-18T02:26:14.935Z,27.17
2019-05-18T02:32:16.570Z,33.10
2019-05-18T02:38:19.113Z,22.82
2019-05-18T02:44:20.647Z,22.98
2019-05-18T02:50:22.207Z,35.52
2019-05-18T02:56:23.755Z,25.12
2019-05-18T03:02:25.174Z,27.32
2019-05-18T03:08:26.825Z,30.95
2019-05-18T03:14:28.599Z,39.30
2019-05-18T03:20:30.221Z,34.90
2019-05-18T03:26:31.701Z,34.38
2019-05-18T03:32:33.254Z,33.55
2019-05-18T03:38:34.695Z,28.30
2019-05-18T03:44:37.393Z,27.30
2019-05-18T03:50:38.962Z,25.88
2019-05-18T03:56:40.493Z,26.42
2019-05-18T04:02:41.979Z,27.35
2019-05-18T04:08:43.464Z,35.43
2019-05-18T04:14:44.921Z,35.58
2019-05-18T04:20:46.393Z,29.37
2019-05-18T04:26:47.868Z,19.30
2019-05-18T04:32:49.337Z,27.85
2019-05-18T04:38:50.765Z,29.48
2019-05-18T04:44:52.258Z,36.05
2019-05-18T04:50:53.703Z,27.95
2019-05-18T04:56:55.268Z,73.87
2019-05-18T05:02:56.724Z,18.82
2019-05-18T05:08:58.173Z,35.28
2019-05-18T05:14:59.726Z,23.52
2019-05-18T05:21:01.181Z,26.10
2019-05-18T05:27:02.790Z,32.78
2019-05-18T05:33:04.238Z,25.75
2019-05-18T05:39:05.863Z,23.62
2019-05-18T05:45:07.890Z,18.25
2019-05-18T05:51:09.416Z,19.35
2019-05-18T05:57:10.861Z,17.87
2019-05-18T06:03:12.306Z,19.42
2019-05-18T06:09:13.774Z,22.10
2019-05-18T06:15:16.627Z,20.55
2019-05-18T06:21:18.236Z,20.25
2019-05-18T06:27:19.831Z,20.15
2019-05-18T06:33:21.298Z,20.17
2019-05-18T06:39:22.773Z,22.60
2019-05-18T06:45:24.339Z,27.98
2019-05-18T06:51:25.826Z,28.38
2019-05-18T06:57:28.227Z,30.32
2019-05-18T07:03:29.844Z,26.68
2019-05-18T07:09:31.460Z,24.70
2019-05-18T07:15:33.030Z,20.12
2019-05-18T07:21:34.853Z,19.52
2019-05-18T07:27:36.584Z,21.12
2019-05-18T07:33:38.075Z,15.18
2019-05-18T07:39:39.552Z,16.20
2019-05-18T07:45:41.143Z,18.75
2019-05-18T07:51:42.588Z,13.83
2019-05-18T07:57:44.148Z,10.20
2019-05-18T08:03:45.623Z,11.50
2019-05-18T08:09:51.940Z,10.00
2019-05-18T08:15:55.446Z,10.65
2019-05-18T08:21:58.192Z,9.15
2019-05-18T08:27:59.754Z,9.73
2019-05-18T08:34:01.290Z,9.23
2019-05-18T08:40:05.171Z,9.43
2019-05-18T08:46:07.718Z,8.60
2019-05-18T08:52:11.242Z,7.45
2019-05-18T08:58:14.737Z,9.43
2019-05-18T09:04:16.363Z,5.87
2019-05-18T09:10:18.128Z,5.22
2019-05-18T09:16:19.624Z,8.20
2019-05-18T09:22:23.134Z,9.33
2019-05-18T09:28:24.367Z,9.68
2019-05-18T09:34:25.956Z,7.78
2019-05-18T09:40:44.484Z,8.48
2019-05-18T09:46:45.911Z,9.98
2019-05-18T09:59:03.298Z,6.78
2019-05-18T10:05:07.239Z,7.70
2019-05-18T10:11:08.963Z,6.62
2019-05-18T10:17:10.518Z,8.40
2019-05-18T10:23:13.866Z,7.37
2019-05-18T10:29:15.496Z,6.75
2019-05-18T10:35:17.063Z,5.20
2019-05-18T10:41:18.603Z,6.72
2019-05-18T10:47:20.067Z,7.05
2019-05-18T10:53:28.804Z,7.62
2019-05-18T10:59:24.868Z,6.87
2019-05-18T11:05:26.479Z,6.62
2019-05-18T11:11:28.079Z,7.22
2019-05-18T11:17:29.728Z,6.62
2019-05-18T11:23:42.868Z,7.10
2019-05-18T11:29:34.597Z,6.05
2019-05-18T11:35:36.211Z,9.28
2019-05-18T11:41:37.712Z,6.35
2019-05-18T11:47:39.387Z,8.20
2019-05-18T11:53:40.958Z,5.72
2019-05-18T11:59:42.547Z,6.67
2019-05-18T12:05:44.015Z,7.40
2019-05-18T12:11:45.571Z,9.58
2019-05-18T12:17:47.080Z,8.05
2019-05-18T12:23:48.618Z,10.18
2019-05-18T12:29:50.030Z,10.35
2019-05-18T12:35:51.627Z,14.18
2019-05-18T12:41:53.114Z,8.08
2019-05-18T12:47:54.557Z,11.78
2019-05-18T12:53:56.264Z,13.15
2019-05-18T12:59:57.765Z,7.20
2019-05-18T13:05:59.199Z,9.88
2019-05-18T13:12:02.824Z,8.38
2019-05-18T13:18:05.116Z,7.53
2019-05-18T13:24:06.616Z,6.10
2019-05-18T13:30:10.191Z,6.65
2019-05-18T13:36:14.245Z,8.33
2019-05-18T13:42:16.441Z,7.12
2019-05-18T13:48:19.766Z,7.28
2019-05-18T13:54:22.392Z,5.92
2019-05-18T14:00:24.437Z,4.70
2019-05-18T14:06:26.023Z,7.37
2019-05-18T14:12:27.497Z,5.60
2019-05-18T14:18:28.953Z,4.30
2019-05-18T14:24:30.580Z,4.25
2019-05-18T14:30:32.170Z,6.03
2019-05-18T14:36:33.637Z,4.80
2019-05-18T14:42:35.288Z,5.17
2019-05-18T14:48:36.942Z,5.47
2019-05-18T14:54:38.527Z,4.92
2019-05-18T15:00:40.085Z,5.42
2019-05-18T15:06:41.570Z,5.65
2019-05-18T15:12:43.042Z,4.95
2019-05-18T15:18:44.492Z,5.55
2019-05-18T15:24:46.013Z,4.72
2019-05-18T15:30:47.525Z,5.53
2019-05-18T15:36:49.088Z,7.55
2019-05-18T15:42:50.501Z,4.45
2019-05-18T15:48:52.119Z,4.90
2019-05-18T15:54:53.761Z,7.03
2019-05-18T16:00:55.190Z,5.83
2019-05-18T16:06:56.770Z,5.42
2019-05-18T16:12:58.396Z,7.60
2019-05-18T16:18:59.829Z,4.45
2019-05-18T16:25:01.513Z,4.15
2019-05-18T16:31:03.005Z,4.70
2019-05-18T16:37:04.491Z,3.62
2019-05-18T16:43:06.029Z,3.90
2019-05-18T16:49:07.668Z,5.42
2019-05-18T16:55:09.429Z,4.17
2019-05-18T17:01:10.928Z,6.87
2019-05-18T17:07:12.669Z,6.08
2019-05-18T17:13:14.284Z,6.08
2019-05-18T17:19:16.512Z,4.00
2019-05-18T17:25:27.566Z,4.28
2019-05-18T17:31:31.474Z,5.00
2019-05-18T17:37:33.080Z,4.47
2019-05-18T17:43:34.794Z,5.65
2019-05-18T17:49:36.265Z,6.10
2019-05-18T17:55:37.710Z,3.70
2019-05-18T18:01:39.333Z,3.92
2019-05-18T18:07:40.833Z,3.60
2019-05-18T18:13:42.296Z,5.97
2019-05-18T18:19:43.796Z,4.72
2019-05-18T18:25:45.445Z,5.65
2019-05-18T18:31:46.988Z,4.75
2019-05-18T18:37:48.498Z,5.60
2019-05-18T18:43:50.193Z,5.35
2019-05-18T18:49:51.782Z,5.47
2019-05-18T18:55:54.224Z,5.75
2019-05-18T19:01:56.040Z,6.72
2019-05-18T19:07:57.597Z,6.10
2019-05-18T19:13:59.073Z,5.20
2019-05-18T19:20:00.571Z,6.28
2019-05-18T19:26:02.147Z,7.85
2019-05-18T19:32:03.595Z,7.58
2019-05-18T19:38:05.229Z,9.20
2019-05-18T19:44:06.691Z,7.55
2019-05-18T19:50:08.556Z,7.53
2019-05-18T19:56:10.120Z,8.93
2019-05-18T20:02:11.673Z,9.30
2019-05-18T20:08:13.151Z,7.95
2019-05-18T20:14:14.684Z,8.25
2019-05-18T20:20:17.311Z,8.20
2019-05-18T20:26:19.306Z,9.43
2019-05-18T20:32:21.153Z,7.67
2019-05-18T20:38:22.775Z,8.43
2019-05-18T20:44:24.547Z,9.80
2019-05-18T20:50:26.031Z,12.90
2019-05-18T20:56:27.573Z,9.00
2019-05-18T21:02:29.422Z,10.60
2019-05-18T21:08:35.576Z,10.45
2019-05-18T21:14:37.554Z,11.30
2019-05-18T21:20:39.212Z,9.10
2019-05-18T21:26:40.715Z,9.60
2019-05-18T21:32:42.173Z,9.65
2019-05-18T21:38:43.709Z,10.65
2019-05-18T21:44:51.577Z,10.48
2019-05-18T21:50:53.179Z,10.72
2019-05-18T21:56:54.783Z,8.98
2019-05-18T22:02:56.384Z,9.98
2019-05-18T22:08:57.967Z,11.05
2019-05-18T22:14:59.481Z,13.18
2019-05-18T22:21:01.144Z,12.50
2019-05-18T22:27:09.345Z,15.78
2019-05-18T22:33:11.069Z,15.55
2019-05-18T22:39:17.757Z,18.02
2019-05-18T22:45:20.808Z,12.45
2019-05-18T22:51:22.279Z,14.85
2019-05-18T22:57:27.437Z,12.78
2019-05-18T23:03:31.831Z,14.25
2019-05-18T23:09:33.670Z,11.50
2019-05-18T23:15:35.355Z,12.18
2019-05-18T23:21:36.919Z,10.95
2019-05-18T23:27:38.410Z,15.05
2019-05-18T23:33:39.963Z,13.18
2019-05-18T23:39:42.672Z,11.80
2019-05-18T23:45:44.228Z,12.35
2019-05-18T23:51:45.750Z,11.35
2019-05-18T23:57:47.237Z,11.45
